Time;durP1;ratioP1;P1;durP2;ratioP2;P2;SDS_P1;SDS_P2;PMS_P1;PMS_P2;Temp;Humidity;BMP_temperature;BMP_pressure;BME280_temperature;BME280_humidity;BME280_pressure;Samples;Min_cycle;Max_cycle;Signal;HPM_P1;HPM_P2
2022/06/16 05:45:09;;;;;;;;;;;;;;;19.58;100.00;98511.41;5112632;28;19927;-54
2022/06/16 05:47:36;;;;;;;;;;;;;;;20.29;100.00;98479.84;5113404;28;19943;-55
2022/06/16 05:50:02;;;;;;;;;;;;;;;21.22;100.00;98385.50;5113499;28;19935;-53
2022/06/16 05:52:27;;;;;;;;;;;;;;;22.24;100.00;98287.00;5113157;28;19928;-54
2022/06/16 05:54:54;;;;;;;;;;;;;;;22.39;100.00;98273.19;5113273;28;19962;-53
2022/06/16 05:57:20;;;;;;;;;;;;;;;23.13;100.00;98285.00;5112939;28;19928;-54
2022/06/16 05:59:46;;;;;;;;;;;;;;;22.84;100.00;98323.88;5112912;28;19928;-54
2022/06/16 06:02:14;;;;;;;;;;;;;;;23.14;100.00;98322.13;5113004;28;19935;-55
2022/06/16 06:04:40;;;;;;;;;;;;;;;22.82;100.00;98290.03;5112927;28;19938;-56
2022/06/16 06:07:06;;;;;;;;;;;;;;;22.77;100.00;98322.94;5112965;28;20310;-57
2022/06/16 06:18:06;;;;;;;;;;;;;;;22.01;100.00;98321.06;5113072;28;19935;-55
2022/06/16 06:20:32;;;;;;;;;;;;;;;22.44;100.00;98289.31;5112625;28;19939;-55
2022/06/16 06:22:58;;;;;;;;;;;;;;;22.92;100.00;98322.28;5112559;28;20451;-56
2022/06/16 06:25:24;;;;;;;;;;;;;;;23.55;100.00;98323.34;5113079;28;19927;-54
2022/06/16 06:27:51;;;;;;;;;;;;;;;24.70;100.00;98412.94;5112622;28;19985;-56
2022/06/16 06:30:19;;;;;;;;;;;;;;;24.92;100.00;98444.19;5113129;28;19928;-57
2022/06/16 06:32:46;;;;;;;;;;;;;;;25.37;100.00;98494.78;5112659;28;19954;-57
2022/06/16 06:35:13;;;;;;;;;;;;;;;25.59;100.00;98528.84;5133170;28;20257;-57
2022/06/16 06:37:39;;;;;;;;;;;;;;;25.56;100.00;98594.41;5133440;28;20091;-57
2022/06/16 06:40:06;;;;;;;;;;;;;;;26.15;100.00;98596.50;5133472;28;19956;-57
2022/06/16 06:42:32;;;;;;;;;;;;;;;25.78;100.00;98600.41;5133170;28;20427;-57
2022/06/16 06:44:58;;;;;;;;;;;;;;;26.28;100.00;98586.50;5132152;27;19928;-57
2022/06/16 06:47:27;;;;;;;;;;;;;;;26.55;100.00;98654.13;5133051;28;19934;-57
2022/06/16 06:49:53;;;;;;;;;;;;;;;27.27;100.00;98645.25;5133001;28;20382;-57
2022/06/16 06:52:20;;;;;;;;;;;;;;;27.90;100.00;98623.75;5132664;28;19950;-58
2022/06/16 06:54:47;;;;;;;;;;;;;;;28.16;100.00;98662.44;5132567;28;19976;-58
2022/06/16 06:57:14;;;;;;;;;;;;;;;28.44;100.00;98735.25;5132873;28;19934;-58
2022/06/16 06:59:40;;;;;;;;;;;;;;;27.51;100.00;98786.56;5132901;28;19927;-58
2022/06/16 07:02:07;;;;;;;;;;;;;;;26.86;100.00;98822.34;5132945;28;20076;-58
2022/06/16 07:04:33;;;;;;;;;;;;;;;27.46;100.00;98804.19;5132401;28;20382;-58
2022/06/16 07:06:59;;;;;;;;;;;;;;;28.18;100.00;98811.28;5132857;28;19980;-57
2022/06/16 07:09:25;;;;;;;;;;;;;;;28.31;100.00;98828.63;5132434;28;20062;-57
2022/06/16 07:11:51;;;;;;;;;;;;;;;28.59;100.00;98800.75;5132627;28;20018;-57
2022/06/16 07:14:17;;;;;;;;;;;;;;;28.67;100.00;98837.75;5132319;28;19972;-57
2022/06/16 07:16:44;;;;;;;;;;;;;;;28.02;100.00;98827.47;5132484;28;19935;-57
2022/06/16 07:19:10;;;;;;;;;;;;;;;27.17;100.00;98805.78;5132246;28;20406;-58
2022/06/16 07:21:36;;;;;;;;;;;;;;;28.49;100.00;98817.06;5132317;28;19976;-58
2022/06/16 07:24:02;;;;;;;;;;;;;;;28.73;100.00;98825.25;5132325;28;19973;-58
2022/06/16 07:26:28;;;;;;;;;;;;;;;28.77;100.00;98788.38;5132051;28;19928;-58
2022/06/16 07:28:57;;;;;;;;;;;;;;;27.88;100.00;98788.88;5132394;28;20386;-58
2022/06/16 07:31:22;;;;;;;;;;;;;;;26.68;100.00;98769.88;5131929;28;19934;-58
2022/06/16 07:33:48;;;;;;;;;;;;;;;26.47;100.00;98701.53;5132033;28;19927;-57
2022/06/16 07:36:14;;;;;;;;;;;;;;;26.83;100.00;98708.78;5132004;28;19980;-58
2022/06/16 07:38:40;;;;;;;;;;;;;;;27.21;100.00;98732.41;5132084;28;20310;-57
2022/06/16 07:43:51;;;;;;;;;;;;;;;27.57;100.00;98725.50;5132148;28;19980;-57
2022/06/16 07:46:17;;;;;;;;;;;;;;;28.25;100.00;98783.44;5131818;28;19939;-57
2022/06/16 07:48:43;;;;;;;;;;;;;;;28.40;100.00;98734.69;5131651;28;20028;-58
2022/06/16 07:51:09;;;;;;;;;;;;;;;27.63;100.00;98762.94;5132259;28;19927;-58
2022/06/16 07:53:35;;;;;;;;;;;;;;;27.10;100.00;98713.28;5132145;28;20352;-58
2022/06/16 07:56:01;;;;;;;;;;;;;;;26.24;100.00;98691.91;5132145;27;19928;-57
2022/06/16 07:58:31;;;;;;;;;;;;;;;25.16;100.00;98645.31;5131705;28;20390;-57
2022/06/16 08:00:57;;;;;;;;;;;;;;;25.58;100.00;98643.16;5132235;28;19927;-58
2022/06/16 08:03:26;;;;;;;;;;;;;;;26.92;100.00;98716.34;5131922;28;20528;-58
2022/06/16 08:05:53;;;;;;;;;;;;;;;27.58;100.00;98751.59;5131868;28;19934;-57
2022/06/16 08:08:22;;;;;;;;;;;;;;;27.45;100.00;98752.69;5131931;28;19979;-58
2022/06/16 08:10:48;;;;;;;;;;;;;;;28.02;100.00;98730.91;5131523;28;20397;-57
2022/06/16 08:13:14;;;;;;;;;;;;;;;28.70;100.00;98707.78;5131333;28;19934;-58
2022/06/16 08:15:42;;;;;;;;;;;;;;;28.83;100.00;98742.00;5131720;28;19971;-58
2022/06/16 08:18:10;;;;;;;;;;;;;;;29.05;100.00;98795.03;5131719;28;20310;-57
2022/06/16 08:20:36;;;;;;;;;;;;;;;29.61;100.00;98813.69;5131338;28;19934;-58
2022/06/16 08:23:02;;;;;;;;;;;;;;;28.61;100.00;98798.22;5131635;28;19927;-58
2022/06/16 08:25:30;;;;;;;;;;;;;;;30.26;100.00;98813.78;5130461;28;20308;-58
2022/06/16 08:27:57;;;;;;;;;;;;;;;30.55;100.00;98814.63;5131419;28;19947;-58
2022/06/16 08:30:23;;;;;;;;;;;;;;;30.79;100.00;98822.69;5131170;28;19927;-58
2022/06/16 08:32:50;;;;;;;;;;;;;;;30.65;100.00;98836.50;5131166;28;19988;-58
2022/06/16 08:35:16;;;;;;;;;;;;;;;30.47;100.00;98823.63;5131174;28;19976;-58
2022/06/16 08:37:42;;;;;;;;;;;;;;;28.53;100.00;98833.78;5131281;28;19945;-58
2022/06/16 08:40:10;;;;;;;;;;;;;;;28.54;100.00;98793.00;5131264;28;19928;-57
2022/06/16 08:42:40;;;;;;;;;;;;;;;27.61;100.00;98730.91;5131084;28;20464;-57
2022/06/16 08:45:09;;;;;;;;;;;;;;;26.93;100.00;98721.47;5130856;28;19927;-57
2022/06/16 08:47:38;;;;;;;;;;;;;;;26.20;100.00;98655.59;5130815;28;19927;-57
2022/06/16 08:50:10;;;;;;;;;;;;;;;26.10;100.00;98628.84;5131064;28;19928;-58
2022/06/16 08:52:42;;;;;;;;;;;;;;;25.52;100.00;98574.13;5130720;28;19928;-57
2022/06/16 08:55:11;;;;;;;;;;;;;;;25.45;100.00;98578.09;5131226;28;19982;-57
2022/06/16 08:57:42;;;;;;;;;;;;;;;26.64;100.00;98642.78;5130742;28;19976;-57
2022/06/16 09:00:11;;;;;;;;;;;;;;;27.47;100.00;98672.63;5130907;28;19927;-57
2022/06/16 09:02:42;;;;;;;;;;;;;;;27.09;100.00;98723.00;5130666;28;19962;-57
2022/06/16 09:05:14;;;;;;;;;;;;;;;26.92;100.00;98654.44;5130700;28;19927;-57
2022/06/16 09:07:45;;;;;;;;;;;;;;;26.35;100.00;98685.72;5130733;27;19927;-57
2022/06/16 09:10:18;;;;;;;;;;;;;;;27.10;100.00;98653.44;5134446;28;19950;-57
2022/06/16 09:12:59;;;;;;;;;;;;;;;26.49;100.00;98612.69;5134313;28;19927;-57
2022/06/16 09:15:30;;;;;;;;;;;;;;;25.92;100.00;98688.75;5078375;28;19938;-57
2022/06/16 09:18:05;;;;;;;;;;;;;;;25.70;100.00;98660.25;5134832;28;20030;-57
2022/06/16 09:20:35;;;;;;;;;;;;;;;25.31;100.00;98623.72;5134303;28;19933;-57
2022/06/16 09:23:10;;;;;;;;;;;;;;;25.43;100.00;98669.66;5134213;28;20310;-57
2022/06/16 09:25:41;;;;;;;;;;;;;;;24.99;100.00;98642.13;5134178;28;19973;-57
2022/06/16 09:28:09;;;;;;;;;;;;;;;24.72;100.00;98629.03;5134224;28;19927;-57
2022/06/16 09:30:39;;;;;;;;;;;;;;;23.97;100.00;98486.94;5134189;28;19938;-57
2022/06/16 09:33:07;;;;;;;;;;;;;;;23.77;100.00;98437.88;5133905;28;19934;-55
2022/06/16 09:35:36;;;;;;;;;;;;;;;23.73;100.00;98397.31;5134041;28;19934;-55
2022/06/16 09:38:05;;;;;;;;;;;;;;;24.25;100.00;98398.72;5133921;28;20027;-57
2022/06/16 09:40:33;;;;;;;;;;;;;;;24.62;100.00;98390.09;5133307;28;19927;-58
2022/06/16 09:43:01;;;;;;;;;;;;;;;24.47;100.00;98425.72;5132978;28;19928;-57
2022/06/16 09:45:31;;;;;;;;;;;;;;;24.42;100.00;98402.72;5132967;28;20420;-58
2022/06/16 09:48:00;;;;;;;;;;;;;;;24.55;100.00;98458.47;5133036;28;19935;-55
2022/06/16 09:50:31;;;;;;;;;;;;;;;25.19;100.00;98499.31;5133540;28;20051;-58
2022/06/16 09:53:00;;;;;;;;;;;;;;;25.96;100.00;98470.31;5134246;28;20834;-56
2022/06/16 09:55:30;;;;;;;;;;;;;;;26.07;100.00;98584.09;5133493;28;19928;-58
2022/06/16 09:58:00;;;;;;;;;;;;;;;25.59;100.00;98552.09;5133750;28;19934;-58
2022/06/16 10:00:27;;;;;;;;;;;;;;;25.32;100.00;98558.75;5133562;28;19931;-58
2022/06/16 10:02:54;;;;;;;;;;;;;;;24.75;100.00;98530.75;5133511;28;19928;-55
2022/06/16 10:05:25;;;;;;;;;;;;;;;24.83;100.00;98526.34;5133416;28;20112;-58
2022/06/16 10:07:56;;;;;;;;;;;;;;;24.41;100.00;98437.56;5133301;28;19928;-57
2022/06/16 10:10:24;;;;;;;;;;;;;;;24.45;100.00;98448.59;5133696;28;19927;-56
2022/06/16 10:12:54;;;;;;;;;;;;;;;24.28;100.00;98489.44;5133235;28;19928;-55
2022/06/16 10:15:23;;;;;;;;;;;;;;;24.06;100.00;98461.69;5133771;28;20568;-56
2022/06/16 10:17:51;;;;;;;;;;;;;;;23.75;100.00;98445.16;5133209;28;19931;-56
2022/06/16 10:20:18;;;;;;;;;;;;;;;23.61;100.00;98407.41;5132283;27;19934;-57
2022/06/16 10:22:47;;;;;;;;;;;;;;;23.61;100.00;98413.78;5133345;28;19928;-54
2022/06/16 10:25:15;;;;;;;;;;;;;;;23.70;100.00;98480.94;5133399;28;20408;-55
2022/06/16 10:27:44;;;;;;;;;;;;;;;24.07;100.00;98466.81;5133069;28;19948;-54
2022/06/16 10:30:18;;;;;;;;;;;;;;;24.61;100.00;98413.75;5133045;28;19927;-55
2022/06/16 10:32:46;;;;;;;;;;;;;;;24.99;100.00;98473.88;5133025;28;19928;-56
2022/06/16 10:35:15;;;;;;;;;;;;;;;25.19;100.00;98425.59;5132995;28;19928;-55
2022/06/16 10:37:42;;;;;;;;;;;;;;;25.73;100.00;98535.75;5132937;28;19927;-55
2022/06/16 10:40:10;;;;;;;;;;;;;;;26.23;100.00;98564.72;5132943;28;19934;-57
2022/06/16 10:42:40;;;;;;;;;;;;;;;26.54;100.00;98546.56;5133088;28;19927;-57
2022/06/16 10:45:09;;;;;;;;;;;;;;;26.49;100.00;98595.00;5132992;28;19976;-57
2022/06/16 10:47:39;;;;;;;;;;;;;;;26.60;100.00;98608.50;5132779;28;20080;-55
2022/06/16 10:50:08;;;;;;;;;;;;;;;26.87;100.00;98594.06;5132674;28;20107;-55
2022/06/16 10:52:36;;;;;;;;;;;;;;;26.80;100.00;98535.41;5132781;28;20492;-55
2022/06/16 10:55:16;;;;;;;;;;;;;;;25.69;100.00;98580.06;5132816;28;19934;-55
2022/06/16 10:57:45;;;;;;;;;;;;;;;25.54;100.00;98516.28;5132609;28;20017;-55
2022/06/16 11:00:13;;;;;;;;;;;;;;;25.04;100.00;98504.84;5132514;28;20018;-55
2022/06/16 11:02:53;;;;;;;;;;;;;;;25.15;100.00;98453.06;5132588;28;19931;-55
2022/06/16 11:05:19;;;;;;;;;;;;;;;25.63;100.00;98509.81;5132345;28;19970;-55
2022/06/16 11:07:46;;;;;;;;;;;;;;;25.89;100.00;98476.34;5132083;28;19932;-56
2022/06/16 11:10:13;;;;;;;;;;;;;;;25.25;100.00;98584.34;5132723;28;20084;-57
2022/06/16 11:12:41;;;;;;;;;;;;;;;25.40;100.00;98556.34;5132304;28;19934;-55
2022/06/16 11:15:24;;;;;;;;;;;;;;;25.32;100.00;98628.06;5132471;28;19927;-56
2022/06/16 11:17:53;;;;;;;;;;;;;;;25.79;100.00;98634.88;5132266;28;20306;-55
2022/06/16 11:20:27;;;;;;;;;;;;;;;26.06;100.00;98603.00;5132207;28;20404;-55
2022/06/16 11:22:53;;;;;;;;;;;;;;;26.22;100.00;98622.16;5132487;28;20045;-54
2022/06/16 11:25:21;;;;;;;;;;;;;;;26.08;100.00;98651.03;5132245;28;19931;-54
2022/06/16 11:27:48;;;;;;;;;;;;;;;25.74;100.00;98680.47;5132577;28;19980;-57
2022/06/16 11:30:28;;;;;;;;;;;;;;;25.97;100.00;98667.69;5132357;28;20465;-55
2022/06/16 11:32:53;;;;;;;;;;;;;;;25.10;100.00;98612.31;5131758;28;19980;-55
2022/06/16 11:35:20;;;;;;;;;;;;;;;25.00;100.00;98605.22;5131860;28;19927;-55
2022/06/16 11:37:51;;;;;;;;;;;;;;;24.47;100.00;98599.41;5132133;28;20355;-54
2022/06/16 11:40:29;;;;;;;;;;;;;;;24.32;100.00;98541.22;5132160;28;19927;-56
2022/06/16 11:43:07;;;;;;;;;;;;;;;24.17;100.00;98562.75;5131840;28;19937;-56
2022/06/16 11:45:34;;;;;;;;;;;;;;;23.69;100.00;98577.34;5131928;28;20026;-56
2022/06/16 11:48:16;;;;;;;;;;;;;;;24.74;100.00;98570.47;5131609;28;19976;-56
2022/06/16 11:50:48;;;;;;;;;;;;;;;25.07;100.00;98559.22;5131885;28;19927;-56
2022/06/16 11:53:21;;;;;;;;;;;;;;;24.98;100.00;98590.88;5131695;28;19979;-56
2022/06/16 11:55:49;;;;;;;;;;;;;;;24.54;100.00;98510.19;5131708;28;19934;-56
2022/06/16 11:58:21;;;;;;;;;;;;;;;24.46;100.00;98466.97;5131775;28;19927;-54
2022/06/16 12:00:48;;;;;;;;;;;;;;;23.88;100.00;98428.94;5131495;28;20030;-55
2022/06/16 12:03:31;;;;;;;;;;;;;;;24.15;100.00;98440.00;5131788;28;19927;-55
2022/06/16 12:06:07;;;;;;;;;;;;;;;23.97;100.00;98408.56;5131811;28;19969;-55
2022/06/16 12:08:39;;;;;;;;;;;;;;;23.81;100.00;98402.06;5131774;28;20408;-55
2022/06/16 12:11:10;;;;;;;;;;;;;;;23.80;100.00;98327.00;5131457;28;19927;-57
2022/06/16 12:13:40;;;;;;;;;;;;;;;23.95;100.00;98328.59;5131636;28;19976;-57
2022/06/16 12:16:07;;;;;;;;;;;;;;;23.70;100.00;98345.88;5131617;28;19966;-55
2022/06/16 12:18:42;;;;;;;;;;;;;;;23.49;100.00;98323.25;5131590;28;20488;-55
2022/06/16 12:21:14;;;;;;;;;;;;;;;23.90;100.00;98362.09;5131269;28;20026;-55
2022/06/16 12:23:45;;;;;;;;;;;;;;;23.70;100.00;98424.22;5131154;28;19974;-55
2022/06/16 12:26:18;;;;;;;;;;;;;;;23.69;100.00;98506.59;5131498;28;20286;-55
2022/06/16 12:28:49;;;;;;;;;;;;;;;23.64;100.00;98512.81;5131226;28;19935;-54
2022/06/16 12:31:17;;;;;;;;;;;;;;;23.82;100.00;98554.75;5131534;28;19927;-55
2022/06/16 12:33:45;;;;;;;;;;;;;;;23.94;100.00;98555.84;5130834;28;19928;-54
2022/06/16 12:36:13;;;;;;;;;;;;;;;24.00;100.00;98528.75;5131306;28;19927;-55
2022/06/16 12:38:45;;;;;;;;;;;;;;;24.19;100.00;98473.44;5131058;28;19928;-54
2022/06/16 12:41:17;;;;;;;;;;;;;;;24.49;100.00;98437.19;5130897;28;19927;-55
2022/06/16 12:43:45;;;;;;;;;;;;;;;24.25;100.00;98435.13;5130501;27;20305;-55
2022/06/16 12:46:14;;;;;;;;;;;;;;;24.63;100.00;98417.66;5131094;28;20017;-54
2022/06/16 12:48:44;;;;;;;;;;;;;;;24.42;100.00;98427.91;5131071;28;19931;-55
2022/06/16 12:51:12;;;;;;;;;;;;;;;24.50;100.00;98433.16;5131012;28;20022;-54
2022/06/16 12:53:40;;;;;;;;;;;;;;;24.44;100.00;98463.09;5130884;28;20463;-55
2022/06/16 12:56:09;;;;;;;;;;;;;;;24.57;100.00;98474.81;5130890;28;19931;-54
2022/06/16 12:58:41;;;;;;;;;;;;;;;24.65;100.00;98507.59;5130613;28;20656;-54
2022/06/16 13:01:08;;;;;;;;;;;;;;;24.52;100.00;98500.69;5130754;28;20390;-55
2022/06/16 13:03:36;;;;;;;;;;;;;;;24.68;100.00;98502.31;5130723;28;20474;-54
2022/06/16 13:06:03;;;;;;;;;;;;;;;24.44;100.00;98440.66;5131052;28;20294;-54
2022/06/16 13:08:31;;;;;;;;;;;;;;;24.12;100.00;98516.56;5130568;28;19927;-54
2022/06/16 13:10:57;;;;;;;;;;;;;;;24.53;100.00;98522.66;5130651;28;19927;-53
2022/06/16 13:13:26;;;;;;;;;;;;;;;24.81;100.00;98536.47;5130548;28;20060;-54
2022/06/16 13:15:55;;;;;;;;;;;;;;;24.88;100.00;98427.56;5130701;28;20306;-54
2022/06/16 13:18:23;;;;;;;;;;;;;;;24.70;100.00;98472.56;5130655;28;19927;-53
2022/06/16 13:20:52;;;;;;;;;;;;;;;24.80;100.00;98495.69;5130693;28;19988;-53
2022/06/16 13:23:19;;;;;;;;;;;;;;;24.69;100.00;98498.25;5130702;28;19927;-54
2022/06/16 13:25:47;;;;;;;;;;;;;;;24.39;100.00;98464.47;5130510;28;19931;-54
2022/06/16 13:28:16;;;;;;;;;;;;;;;24.47;100.00;98412.47;5130581;28;19927;-55
2022/06/16 13:30:56;;;;;;;;;;;;;;;24.38;100.00;98423.69;5130283;28;20038;-56
2022/06/16 13:33:31;;;;;;;;;;;;;;;24.29;100.00;98440.56;5130557;28;19928;-56
2022/06/16 13:36:12;;;;;;;;;;;;;;;24.53;100.00;98399.34;5130184;28;19933;-56
2022/06/16 13:38:43;;;;;;;;;;;;;;;24.67;100.00;98381.03;5126239;28;19927;-53
2022/06/16 13:41:41;;;;;;;;;;;;;;;24.74;100.00;98472.38;5130138;28;20043;-54
2022/06/16 13:44:21;;;;;;;;;;;;;;;24.49;100.00;98468.00;5130079;28;19931;-55
2022/06/16 13:47:12;;;;;;;;;;;;;;;24.63;100.00;98447.69;5130155;28;19927;-55
2022/06/16 13:49:52;;;;;;;;;;;;;;;24.44;100.00;98489.06;5130063;28;19927;-55
2022/06/16 13:52:24;;;;;;;;;;;;;;;24.98;100.00;98466.75;5129927;28;20390;-54
2022/06/16 13:54:50;;;;;;;;;;;;;;;24.85;100.00;98450.94;5131904;27;20420;-55
2022/06/16 13:57:18;;;;;;;;;;;;;;;24.31;100.00;98457.69;5133944;28;19988;-56
2022/06/16 13:59:45;;;;;;;;;;;;;;;23.84;100.00;98506.72;5133577;28;19928;-56
2022/06/16 14:02:12;;;;;;;;;;;;;;;23.75;100.00;98495.53;5133571;28;20373;-55
2022/06/16 14:04:44;;;;;;;;;;;;;;;23.83;100.00;98458.38;5133627;28;19927;-55
2022/06/16 14:07:13;;;;;;;;;;;;;;;23.42;100.00;98434.66;5133527;28;19976;-55
2022/06/16 14:09:48;;;;;;;;;;;;;;;24.04;100.00;98445.38;5133651;28;19928;-56
2022/06/16 14:12:16;;;;;;;;;;;;;;;23.98;100.00;98402.47;5133682;28;20438;-54
2022/06/16 14:15:06;;;;;;;;;;;;;;;23.85;100.00;98408.28;5133499;28;20418;-54
2022/06/16 14:17:33;;;;;;;;;;;;;;;23.46;100.00;98469.63;5108241;28;20022;-55
2022/06/16 14:20:01;;;;;;;;;;;;;;;23.67;100.00;98458.69;5133368;28;19927;-53
2022/06/16 14:22:29;;;;;;;;;;;;;;;23.60;100.00;98470.22;5133613;28;20515;-54
2022/06/16 14:25:00;;;;;;;;;;;;;;;23.64;100.00;98426.84;5133626;28;19931;-55
2022/06/16 14:27:28;;;;;;;;;;;;;;;23.77;100.00;98384.69;5133379;28;20072;-56
2022/06/16 14:29:55;;;;;;;;;;;;;;;23.62;100.00;98372.59;5133351;28;20393;-55
2022/06/16 14:32:24;;;;;;;;;;;;;;;23.59;100.00;98346.34;5133080;28;19980;-54
2022/06/16 14:34:54;;;;;;;;;;;;;;;23.67;100.00;98431.50;5133109;28;19985;-54
2022/06/16 14:37:24;;;;;;;;;;;;;;;23.65;100.00;98377.25;5133553;28;20431;-55
2022/06/16 14:39:53;;;;;;;;;;;;;;;23.30;100.00;98358.13;5133069;28;20427;-54
2022/06/16 14:42:24;;;;;;;;;;;;;;;23.45;100.00;98380.59;5132791;28;19932;-53
2022/06/16 14:44:52;;;;;;;;;;;;;;;23.25;100.00;98383.91;5133262;28;19927;-55
2022/06/16 14:47:20;;;;;;;;;;;;;;;23.32;100.00;98422.72;5133120;28;19996;-55
2022/06/16 14:49:51;;;;;;;;;;;;;;;23.32;100.00;98377.97;5133132;28;19927;-54
2022/06/16 14:52:19;;;;;;;;;;;;;;;23.29;100.00;98350.19;5132919;28;19928;-55
2022/06/16 14:54:47;;;;;;;;;;;;;;;23.21;100.00;98291.78;5133048;28;19927;-55
2022/06/16 14:57:19;;;;;;;;;;;;;;;23.28;100.00;98313.06;5132917;28;19956;-56
2022/06/16 14:59:49;;;;;;;;;;;;;;;23.31;100.00;98351.25;5133036;28;20382;-55
2022/06/16 15:02:15;;;;;;;;;;;;;;;23.29;100.00;98339.75;5132871;28;19986;-55
2022/06/16 15:04:41;;;;;;;;;;;;;;;23.29;100.00;98406.09;5132816;28;19933;-55
2022/06/16 15:07:07;;;;;;;;;;;;;;;22.97;100.00;98367.19;5132108;27;19931;-55
2022/06/16 15:09:35;;;;;;;;;;;;;;;22.97;100.00;98370.00;5132610;28;19927;-55
2022/06/16 15:12:02;;;;;;;;;;;;;;;22.59;100.00;98364.84;5132782;28;19931;-54
2022/06/16 15:14:29;;;;;;;;;;;;;;;22.87;100.00;98401.97;5132559;28;19948;-53
2022/06/16 15:19:41;;;;;;;;;;;;;;;22.85;100.00;98395.28;5132550;28;19934;-52
2022/06/16 15:22:07;;;;;;;;;;;;;;;22.87;100.00;98427.13;5132680;28;19928;-55
2022/06/16 15:24:37;;;;;;;;;;;;;;;22.90;100.00;98439.38;5132487;28;19975;-52
2022/06/16 15:27:03;;;;;;;;;;;;;;;22.81;100.00;98445.75;5132563;28;19934;-54
2022/06/16 15:29:30;;;;;;;;;;;;;;;23.13;100.00;98415.63;5132311;28;19927;-54
2022/06/16 15:31:57;;;;;;;;;;;;;;;23.12;100.00;98442.03;5132351;28;20038;-53
2022/06/16 15:37:08;;;;;;;;;;;;;;;22.78;100.00;98444.63;5132346;28;20015;-51
2022/06/16 15:39:35;;;;;;;;;;;;;;;22.87;100.00;98427.13;5132249;28;19927;-54
2022/06/16 15:42:02;;;;;;;;;;;;;;;22.89;100.00;98409.88;5132190;28;20046;-55
2022/06/16 15:44:30;;;;;;;;;;;;;;;23.02;100.00;98416.09;5132129;28;20021;-56
2022/06/16 15:46:58;;;;;;;;;;;;;;;23.12;100.00;98377.72;5132064;28;19935;-54
2022/06/16 15:49:27;;;;;;;;;;;;;;;22.66;100.00;98394.50;5132301;28;19927;-56
2022/06/16 15:51:54;;;;;;;;;;;;;;;22.60;100.00;98354.47;5132009;28;20362;-53
2022/06/16 15:54:22;;;;;;;;;;;;;;;22.46;100.00;98317.56;5131842;28;19934;-53
2022/06/16 15:56:48;;;;;;;;;;;;;;;22.06;100.00;98323.25;5132144;28;20029;-53
2022/06/16 15:59:14;;;;;;;;;;;;;;;22.13;100.00;98341.72;5114912;28;20483;-53
2022/06/16 16:01:41;;;;;;;;;;;;;;;22.17;100.00;98264.97;5131874;28;19976;-52
2022/06/16 16:04:10;;;;;;;;;;;;;;;22.00;100.00;98323.06;5132195;28;19928;-50
2022/06/16 16:06:38;;;;;;;;;;;;;;;22.06;100.00;98284.94;5131749;28;19927;-53
2022/06/16 16:09:08;;;;;;;;;;;;;;;21.96;100.00;98293.75;5131666;28;19931;-51
2022/06/16 16:11:34;;;;;;;;;;;;;;;21.85;100.00;98285.84;5131698;28;19928;-50
2022/06/16 16:14:01;;;;;;;;;;;;;;;21.64;100.00;98226.16;5131592;28;20418;-52
2022/06/16 16:16:28;;;;;;;;;;;;;;;21.60;100.00;98183.69;5131561;28;19927;-53
2022/06/16 16:19:05;;;;;;;;;;;;;;;21.64;100.00;98222.59;5130365;27;20275;-52
2022/06/16 16:21:36;;;;;;;;;;;;;;;21.53;100.00;98223.81;5131581;28;19927;-53
2022/06/16 16:24:04;;;;;;;;;;;;;;;21.38;100.00;98251.47;5131526;28;19934;-50
2022/06/16 16:26:30;;;;;;;;;;;;;;;21.23;100.00;98236.56;5131606;28;19934;-53
2022/06/16 16:28:59;;;;;;;;;;;;;;;21.14;100.00;98217.00;5131447;28;19932;-54
2022/06/16 16:31:25;;;;;;;;;;;;;;;21.24;100.00;98206.66;5131515;28;20008;-52
2022/06/16 16:33:55;;;;;;;;;;;;;;;20.83;100.00;98209.47;5131413;28;20393;-50
2022/06/16 16:36:27;;;;;;;;;;;;;;;20.53;100.00;98166.47;5131352;28;20294;-50
2022/06/16 16:38:54;;;;;;;;;;;;;;;20.25;100.00;98109.06;5131323;28;20440;-50
2022/06/16 16:44:15;;;;;;;;;;;;;;;20.07;100.00;98062.44;5131560;28;19934;-54
2022/06/16 16:46:41;;;;;;;;;;;;;;;19.98;100.00;98054.81;5131192;28;19934;-52
2022/06/16 16:49:07;;;;;;;;;;;;;;;19.41;100.00;98040.97;5131208;28;19927;-52
2022/06/16 16:51:34;;;;;;;;;;;;;;;19.67;100.00;98038.09;5131501;28;19931;-51
2022/06/16 16:54:04;;;;;;;;;;;;;;;19.43;100.00;98043.31;5131352;28;20731;-53
2022/06/16 16:56:33;;;;;;;;;;;;;;;19.59;100.00;98029.19;5131137;28;20339;-51
2022/06/16 16:59:00;;;;;;;;;;;;;;;19.45;100.00;98035.28;5130977;28;19935;-53
2022/06/16 17:01:29;;;;;;;;;;;;;;;19.01;100.00;98032.47;5131087;28;19931;-51
2022/06/16 17:03:55;;;;;;;;;;;;;;;19.10;100.00;98017.91;5130950;28;20429;-53
2022/06/16 17:06:21;;;;;;;;;;;;;;;19.13;100.00;98017.78;5131256;28;19927;-53
2022/06/16 17:08:47;;;;;;;;;;;;;;;18.83;100.00;98021.97;5130776;28;19928;-51
2022/06/16 17:13:59;;;;;;;;;;;;;;;18.90;100.00;98018.94;5131228;28;19985;-52
2022/06/16 17:16:26;;;;;;;;;;;;;;;19.01;100.00;98019.34;5130885;28;20397;-50
2022/06/16 17:18:52;;;;;;;;;;;;;;;19.03;100.00;98025.25;5131163;28;19927;-52
2022/06/16 17:21:18;;;;;;;;;;;;;;;19.22;100.00;98020.59;5131024;28;20034;-50
2022/06/16 17:23:44;;;;;;;;;;;;;;;19.32;100.00;98020.69;5131139;28;20038;-50
2022/06/16 17:26:12;;;;;;;;;;;;;;;19.16;100.00;98041.88;5130744;28;19934;-49
2022/06/16 17:28:38;;;;;;;;;;;;;;;19.34;100.00;98037.69;5130843;27;19933;-49
2022/06/16 17:31:06;;;;;;;;;;;;;;;19.37;100.00;98029.22;5134429;28;19927;-51
2022/06/16 17:33:32;;;;;;;;;;;;;;;19.35;100.00;98008.66;5134260;28;19931;-50
2022/06/16 17:35:58;;;;;;;;;;;;;;;19.35;100.00;98008.66;5133952;28;19943;-49
2022/06/16 17:38:24;;;;;;;;;;;;;;;19.25;100.00;98011.38;5134076;28;19939;-49
2022/06/16 17:40:51;;;;;;;;;;;;;;;19.31;100.00;98014.34;5134017;28;19928;-50
2022/06/16 17:43:17;;;;;;;;;;;;;;;19.16;100.00;98014.09;5134130;28;19934;-51
2022/06/16 17:45:43;;;;;;;;;;;;;;;19.08;100.00;98017.56;5134136;28;19927;-49
2022/06/16 17:48:10;;;;;;;;;;;;;;;19.12;100.00;98024.53;5133751;28;20061;-53
2022/06/16 17:50:37;;;;;;;;;;;;;;;18.97;100.00;98021.47;5133994;28;19931;-49
2022/06/16 18:01:12;;;;;;;;;;;;;;;18.75;100.00;98018.63;5134367;28;19935;-49
2022/06/16 18:03:39;;;;;;;;;;;;;;;18.95;100.00;98014.81;5133873;28;19934;-49
2022/06/16 18:06:06;;;;;;;;;;;;;;;18.92;100.00;98013.72;5134028;28;19978;-49
2022/06/16 18:08:34;;;;;;;;;;;;;;;18.80;100.00;98022.88;5134171;28;19927;-50
2022/06/16 18:11:01;;;;;;;;;;;;;;;18.68;100.00;98020.84;5133931;28;19928;-49
2022/06/16 18:13:27;;;;;;;;;;;;;;;18.62;100.00;98031.75;5134063;28;20535;-49
2022/06/16 18:15:53;;;;;;;;;;;;;;;18.67;100.00;98038.75;5133966;28;20329;-49
2022/06/16 18:18:20;;;;;;;;;;;;;;;18.64;100.00;98034.84;5133773;28;20018;-51
2022/06/16 18:20:49;;;;;;;;;;;;;;;18.59;100.00;98043.72;5133399;28;19931;-52
2022/06/16 18:23:16;;;;;;;;;;;;;;;18.66;100.00;98054.63;5133599;28;20099;-52
2022/06/16 18:25:42;;;;;;;;;;;;;;;18.59;100.00;98068.72;5133710;28;20092;-49
2022/06/16 18:28:12;;;;;;;;;;;;;;;18.61;100.00;98074.59;5133667;28;19992;-49
2022/06/16 18:30:38;;;;;;;;;;;;;;;18.53;100.00;98093.50;5133449;28;19934;-51
2022/06/16 18:33:05;;;;;;;;;;;;;;;18.53;100.00;98104.59;5133398;28;20367;-50
2022/06/16 18:35:31;;;;;;;;;;;;;;;18.37;100.00;98137.22;5133272;28;19935;-50
2022/06/16 18:38:00;;;;;;;;;;;;;;;18.37;100.00;98140.78;5133326;28;19927;-51
2022/06/16 18:40:28;;;;;;;;;;;;;;;18.36;100.00;98155.88;5132481;27;19976;-52
2022/06/16 18:42:57;;;;;;;;;;;;;;;18.24;100.00;98190.69;5132931;28;19928;-51
2022/06/16 18:45:23;;;;;;;;;;;;;;;18.20;100.00;98192.78;5133164;28;20356;-51
2022/06/16 18:47:49;;;;;;;;;;;;;;;18.15;100.00;98204.41;5132885;28;19927;-53
2022/06/16 18:50:16;;;;;;;;;;;;;;;18.18;100.00;98186.88;5132911;28;19927;-51
2022/06/16 18:52:43;;;;;;;;;;;;;;;18.14;100.00;98229.81;5132956;28;19927;-49
2022/06/16 18:55:10;;;;;;;;;;;;;;;17.99;100.00;98257.16;5132925;28;19981;-49
2022/06/16 18:57:36;;;;;;;;;;;;;;;18.04;100.00;98276.81;5132946;28;20026;-51